Time;durP1;ratioP1;P1;durP2;ratioP2;P2;SDS_P1;SDS_P2;PMS_P1;PMS_P2;Temp;Humidity;BMP_temperature;BMP_pressure;BME280_temperature;BME280_humidity;BME280_pressure;Samples;Min_cycle;Max_cycle;Signal;HPM_P1;HPM_P2
2023/11/01 00:00:56;;;;;;;;;;;;;;;29.04;72.89;101032.25;5042302;28;66270;-41
2023/11/01 00:03:26;;;;;;;;;;;;;;;29.05;73.54;101033.91;5042195;28;69100;-40
2023/11/01 00:05:57;;;;;;;;;;;;;;;29.06;73.66;101030.16;5039300;28;66484;-40
2023/11/01 00:08:28;;;;;;;;;;;;;;;29.07;72.39;101032.66;5040049;28;70549;-42
2023/11/01 00:10:58;;;;;;;;;;;;;;;29.09;74.17;101036.00;5029175;28;65512;-39
2023/11/01 00:13:27;;;;;;;;;;;;;;;29.11;73.82;101043.88;5041382;28;69721;-39
2023/11/01 00:15:57;;;;;;;;;;;;;;;29.10;72.48;101042.25;5042406;28;66398;-39
2023/11/01 00:18:27;;;;;;;;;;;;;;;29.13;74.42;101044.53;5043095;28;69988;-39
2023/11/01 00:20:57;;;;;;;;;;;;;;;29.14;74.30;101043.47;5038490;28;66671;-39
2023/11/01 00:23:26;;;;;;;;;;;;;;;29.15;74.36;101045.16;5027285;28;70670;-39
2023/11/01 00:25:56;;;;;;;;;;;;;;;29.16;75.10;101039.53;5038299;28;66167;-38
2023/11/01 00:28:29;;;;;;;;;;;;;;;29.17;75.40;101040.41;5035909;28;70004;-39
2023/11/01 00:30:59;;;;;;;;;;;;;;;29.21;75.38;101044.34;5039109;28;66087;-40
2023/11/01 00:33:29;;;;;;;;;;;;;;;29.23;75.99;101036.88;5042246;28;70265;-39
2023/11/01 00:35:59;;;;;;;;;;;;;;;29.23;75.62;101047.69;5042365;28;67012;-40
2023/11/01 00:38:29;;;;;;;;;;;;;;;29.23;74.43;101047.69;5054721;28;69483;-39
2023/11/01 00:41:02;;;;;;;;;;;;;;;29.25;74.80;101053.69;5061028;28;66829;-42
2023/11/01 00:43:32;;;;;;;;;;;;;;;29.31;76.40;101055.59;5042895;28;69050;-39
2023/11/01 00:46:03;;;;;;;;;;;;;;;29.34;75.95;101065.97;5044246;28;66281;-39
2023/11/01 00:48:32;;;;;;;;;;;;;;;29.35;75.71;101062.22;5043392;28;70355;-40
2023/11/01 00:51:02;;;;;;;;;;;;;;;29.35;76.27;101070.34;5044098;28;66934;-40
2023/11/01 00:53:32;;;;;;;;;;;;;;;29.38;75.73;101067.22;5042804;28;70034;-40
2023/11/01 00:56:02;;;;;;;;;;;;;;;29.39;76.14;101074.31;5043910;28;66870;-42
2023/11/01 00:58:32;;;;;;;;;;;;;;;29.39;75.63;101078.84;5041283;28;70107;-39
2023/11/01 01:01:02;;;;;;;;;;;;;;;29.40;76.32;101075.97;5043009;28;66597;-39
2023/11/01 01:03:35;;;;;;;;;;;;;;;29.42;76.05;101089.28;5041617;28;69837;-41
2023/11/01 01:06:05;;;;;;;;;;;;;;;29.44;74.55;101091.75;5053033;28;66130;-41
2023/11/01 01:08:35;;;;;;;;;;;;;;;29.47;73.32;101091.34;5041332;28;69307;-42
2023/11/01 01:11:05;;;;;;;;;;;;;;;29.47;72.02;101094.88;5042235;28;66004;-41
2023/11/01 01:13:35;;;;;;;;;;;;;;;29.51;71.39;101095.31;5049530;28;69758;-42
2023/11/01 01:16:04;;;;;;;;;;;;;;;29.55;71.37;101099.25;5057131;28;66372;-42
2023/11/01 01:18:35;;;;;;;;;;;;;;;29.57;70.68;101097.19;5033303;28;70251;-42
2023/11/01 01:21:05;;;;;;;;;;;;;;;29.59;70.69;101095.13;5044426;28;65834;-41
2023/11/01 01:23:35;;;;;;;;;;;;;;;29.61;70.61;101093.03;5046446;28;70189;-41
2023/11/01 01:26:04;;;;;;;;;;;;;;;29.64;70.10;101103.44;5032510;28;66645;-42
2023/11/01 01:28:34;;;;;;;;;;;;;;;29.65;69.97;101110.53;5034827;28;70425;-42
2023/11/01 01:31:04;;;;;;;;;;;;;;;29.68;69.76;101115.53;5038304;28;65860;-42
2023/11/01 01:33:34;;;;;;;;;;;;;;;29.70;69.77;101112.59;5034456;28;69948;-42
2023/11/01 01:36:04;;;;;;;;;;;;;;;29.67;69.50;101113.88;5033547;28;66357;-42
2023/11/01 01:38:34;;;;;;;;;;;;;;;29.73;69.72;101123.88;5043416;28;70728;-43
2023/11/01 01:41:04;;;;;;;;;;;;;;;29.74;69.69;101125.50;5038264;28;66884;-41
2023/11/01 01:43:34;;;;;;;;;;;;;;;29.77;69.63;101124.28;5037514;28;70767;-42
2023/11/01 01:46:15;;;;;;;;;;;;;;;29.79;68.88;101130.31;5037529;28;66833;-41
2023/11/01 01:48:45;;;;;;;;;;;;;;;29.81;68.85;101126.38;5053600;28;70112;-42
2023/11/01 01:51:15;;;;;;;;;;;;;;;29.83;69.09;101136.97;5052176;28;66791;-41
2023/11/01 01:53:46;;;;;;;;;;;;;;;29.85;69.33;101132.19;5039053;28;70195;-42
2023/11/01 01:56:17;;;;;;;;;;;;;;;29.74;68.72;101117.41;5037871;28;67263;-40
2023/11/01 01:58:47;;;;;;;;;;;;;;;29.89;69.17;101143.41;5053604;28;70351;-42
2023/11/01 02:01:18;;;;;;;;;;;;;;;29.91;68.96;101150.28;5028233;28;66019;-42
2023/11/01 02:04:00;;;;;;;;;;;;;;;29.93;69.12;101150.91;5036501;28;70276;-43
2023/11/01 02:06:30;;;;;;;;;;;;;;;29.96;69.07;101144.25;5034913;28;65877;-42
2023/11/01 02:09:00;;;;;;;;;;;;;;;29.97;68.65;101151.31;5033697;28;69990;-42
2023/11/01 02:11:29;;;;;;;;;;;;;;;29.98;69.13;101143.00;5050431;28;67560;-40
2023/11/01 02:13:59;;;;;;;;;;;;;;;30.01;69.11;101158.81;5037519;28;70145;-41
2023/11/01 02:16:29;;;;;;;;;;;;;;;30.03;68.99;101140.53;5036363;28;66348;-41
2023/11/01 02:18:59;;;;;;;;;;;;;;;30.05;68.94;101138.41;5037504;28;70342;-42
2023/11/01 02:21:29;;;;;;;;;;;;;;;30.06;68.89;101141.94;5040076;28;67039;-41
2023/11/01 02:23:58;;;;;;;;;;;;;;;30.09;68.68;101144.25;5038393;28;70172;-41
2023/11/01 02:26:30;;;;;;;;;;;;;;;30.11;68.35;101141.34;5037594;28;67899;-42
2023/11/01 02:29:00;;;;;;;;;;;;;;;30.13;68.20;101140.09;5033356;28;69793;-42
2023/11/01 02:31:29;;;;;;;;;;;;;;;30.16;68.32;101138.84;5053554;28;66356;-43
2023/11/01 02:33:59;;;;;;;;;;;;;;;30.17;68.56;101130.53;5053686;28;70597;-42
2023/11/01 02:36:29;;;;;;;;;;;;;;;30.21;68.75;101141.75;5035377;28;67029;-44
2023/11/01 02:38:59;;;;;;;;;;;;;;;30.22;68.59;101127.19;5038658;28;70666;-41
2023/11/01 02:41:28;;;;;;;;;;;;;;;30.25;68.23;101126.78;5036780;28;66189;-40
2023/11/01 02:43:58;;;;;;;;;;;;;;;30.27;68.03;101141.75;5037261;28;69447;-41
2023/11/01 02:46:28;;;;;;;;;;;;;;;30.28;68.36;101134.47;5038727;28;66861;-42
2023/11/01 02:48:59;;;;;;;;;;;;;;;30.32;68.45;101133.03;5039297;28;71230;-41
2023/11/01 02:51:28;;;;;;;;;;;;;;;30.34;68.16;101139.06;5039461;28;66744;-42
2023/11/01 02:53:58;;;;;;;;;;;;;;;30.36;68.29;101138.84;5040313;28;70156;-41
2023/11/01 02:56:28;;;;;;;;;;;;;;;30.37;68.35;101125.09;5038158;28;66321;-41
2023/11/01 02:58:58;;;;;;;;;;;;;;;30.41;68.37;101120.09;5029394;28;69415;-41
2023/11/01 03:01:28;;;;;;;;;;;;;;;30.42;67.92;101114.47;5028115;28;66584;-41
2023/11/01 03:03:58;;;;;;;;;;;;;;;30.45;68.50;101115.91;5039957;28;70622;-42
2023/11/01 03:06:27;;;;;;;;;;;;;;;30.46;67.72;101109.47;5052794;28;66608;-42
2023/11/01 03:08:57;;;;;;;;;;;;;;;30.50;67.67;101105.28;5048485;28;70700;-41
2023/11/01 03:11:27;;;;;;;;;;;;;;;30.51;67.96;101106.97;5039305;28;66713;-41
2023/11/01 03:13:57;;;;;;;;;;;;;;;30.54;67.90;101101.13;5034952;28;69777;-42
2023/11/01 03:16:27;;;;;;;;;;;;;;;30.57;68.01;101102.56;5022246;28;66318;-43
2023/11/01 03:18:57;;;;;;;;;;;;;;;30.57;67.68;101097.97;5034694;28;69512;-42
2023/11/01 03:21:27;;;;;;;;;;;;;;;30.58;67.73;101088.81;5030897;28;66175;-42
2023/11/01 03:23:56;;;;;;;;;;;;;;;30.62;67.58;101089.19;5041067;28;70224;-41
2023/11/01 03:26:26;;;;;;;;;;;;;;;30.63;67.75;101093.59;5042333;28;66064;-41
2023/11/01 03:28:56;;;;;;;;;;;;;;;30.63;67.58;101080.88;5041500;28;70338;-42
2023/11/01 03:31:26;;;;;;;;;;;;;;;30.66;67.58;101075.03;5043480;28;66601;-50
2023/11/01 03:33:56;;;;;;;;;;;;;;;30.68;67.25;101069.41;5045139;28;69948;-45
2023/11/01 03:36:26;;;;;;;;;;;;;;;30.69;67.49;101069.19;5043613;28;66502;-41
2023/11/01 03:38:56;;;;;;;;;;;;;;;30.72;67.25;101079.59;5046143;28;72323;-44
2023/11/01 03:41:26;;;;;;;;;;;;;;;30.74;67.13;101076.69;5047319;28;66902;-42
2023/11/01 03:43:56;;;;;;;;;;;;;;;30.76;67.54;101077.31;5048527;28;70354;-42
2023/11/01 03:46:25;;;;;;;;;;;;;;;30.79;67.07;101086.88;5046405;28;66937;-42
2023/11/01 03:48:56;;;;;;;;;;;;;;;30.53;67.18;101030.94;5044662;28;70575;-42
2023/11/01 03:51:26;;;;;;;;;;;;;;;30.82;66.72;101067.53;5029171;28;65625;-41
2023/11/01 03:53:56;;;;;;;;;;;;;;;30.84;67.08;101062.69;5042274;28;69421;-45
2023/11/01 03:56:26;;;;;;;;;;;;;;;30.86;66.72;101066.84;5042473;28;66551;-41
2023/11/01 03:58:56;;;;;;;;;;;;;;;30.88;66.79;101055.81;5034266;28;69698;-41
2023/11/01 04:01:25;;;;;;;;;;;;;;;30.90;67.11;101051.03;5036690;28;65962;-47
2023/11/01 04:03:55;;;;;;;;;;;;;;;30.92;66.58;101057.03;5030598;28;69933;-42
2023/11/01 04:06:25;;;;;;;;;;;;;;;30.95;67.02;101051.19;5043095;28;66571;-42
2023/11/01 04:08:55;;;;;;;;;;;;;;;30.96;66.98;101039.31;5033071;28;70042;-43
2023/11/01 04:11:25;;;;;;;;;;;;;;;30.97;66.96;101043.66;5043141;28;66575;-42
2023/11/01 04:13:55;;;;;;;;;;;;;;;30.99;66.88;101033.47;5030648;28;68540;-42
2023/11/01 04:16:24;;;;;;;;;;;;;;;31.01;66.83;101039.50;5028442;28;66306;-41
2023/11/01 04:18:55;;;;;;;;;;;;;;;31.03;66.95;101025.72;5042079;28;70020;-42
2023/11/01 04:21:24;;;;;;;;;;;;;;;31.04;66.57;101017.38;5039072;28;65220;-41
2023/11/01 04:23:54;;;;;;;;;;;;;;;31.06;66.33;101015.25;5040153;28;70614;-42
2023/11/01 04:26:24;;;;;;;;;;;;;;;31.08;66.58;101013.16;5041662;28;66531;-42
2023/11/01 04:28:54;;;;;;;;;;;;;;;31.10;66.58;101011.09;5047461;28;69435;-42
2023/11/01 04:31:24;;;;;;;;;;;;;;;31.12;66.39;101003.56;5036834;28;66536;-41
2023/11/01 04:33:54;;;;;;;;;;;;;;;31.14;66.37;100996.03;5025793;28;70286;-44
2023/11/01 04:36:27;;;;;;;;;;;;;;;31.16;66.21;101002.06;5030624;28;66944;-41
2023/11/01 04:38:57;;;;;;;;;;;;;;;31.20;66.03;101005.16;5040497;28;69374;-41
2023/11/01 04:41:27;;;;;;;;;;;;;;;31.23;66.46;100993.06;5040407;28;67038;-41
2023/11/01 04:43:57;;;;;;;;;;;;;;;31.23;66.04;100993.06;5043550;28;69693;-41
2023/11/01 04:46:27;;;;;;;;;;;;;;;31.25;65.95;100989.06;5037837;28;66908;-40
2023/11/01 04:48:57;;;;;;;;;;;;;;;31.28;65.78;100979.69;5042649;28;69411;-41
2023/11/01 04:51:28;;;;;;;;;;;;;;;31.30;66.04;100967.56;5042548;28;66995;-42
2023/11/01 04:53:58;;;;;;;;;;;;;;;31.32;65.57;100953.81;5039546;28;70307;-42
2023/11/01 04:56:28;;;;;;;;;;;;;;;31.34;65.59;100962.53;5041980;28;65590;-42
2023/11/01 04:58:58;;;;;;;;;;;;;;;31.35;65.27;100954.19;5042808;28;70751;-38
2023/11/01 05:01:33;;;;;;;;;;;;;;;31.37;65.46;100946.72;5033759;28;65355;-39
2023/11/01 05:04:03;;;;;;;;;;;;;;;31.39;65.64;100944.56;5030634;28;69776;-40
2023/11/01 05:06:33;;;;;;;;;;;;;;;31.42;65.41;100937.88;5033313;28;65940;-40
2023/11/01 05:09:04;;;;;;;;;;;;;;;31.44;65.60;100924.94;5040746;28;69990;-41
2023/11/01 05:11:34;;;;;;;;;;;;;;;31.46;65.75;100925.56;5038940;28;66425;-40
2023/11/01 05:14:04;;;;;;;;;;;;;;;31.47;65.38;100921.78;5041338;28;69759;-40
2023/11/01 05:16:34;;;;;;;;;;;;;;;31.48;65.59;100915.31;5037433;28;67055;-39
2023/11/01 05:19:08;;;;;;;;;;;;;;;31.51;65.19;100920.31;5040156;28;68964;-40
2023/11/01 05:21:38;;;;;;;;;;;;;;;31.53;65.23;100911.94;5041954;28;65998;-40
2023/11/01 05:24:08;;;;;;;;;;;;;;;31.55;65.19;100904.41;5041577;28;69856;-41
2023/11/01 05:26:38;;;;;;;;;;;;;;;31.56;65.16;100911.47;5042118;28;65954;-40
2023/11/01 05:29:09;;;;;;;;;;;;;;;31.57;65.30;100903.13;5039738;28;69897;-40
2023/11/01 05:31:39;;;;;;;;;;;;;;;31.59;65.27;100895.59;5039262;28;65951;-41
2023/11/01 05:34:11;;;;;;;;;;;;;;;31.61;65.09;100892.66;5027251;28;68874;-40
2023/11/01 05:36:41;;;;;;;;;;;;;;;31.63;65.11;100879.72;5042008;28;66685;-41
2023/11/01 05:39:11;;;;;;;;;;;;;;;31.65;65.03;100890.31;5042478;28;69747;-41
2023/11/01 05:41:40;;;;;;;;;;;;;;;31.67;65.17;100890.94;5041278;28;65585;-41
2023/11/01 05:44:10;;;;;;;;;;;;;;;31.67;65.10;100885.50;5040314;28;69954;-41
2023/11/01 05:46:40;;;;;;;;;;;;;;;31.69;65.09;100891.53;5041398;28;65084;-42
2023/11/01 05:49:11;;;;;;;;;;;;;;;31.72;64.71;100883.78;5023218;28;70154;-41
2023/11/01 05:51:41;;;;;;;;;;;;;;;31.74;64.91;100886.28;5033551;28;66192;-39
2023/11/01 05:54:11;;;;;;;;;;;;;;;31.74;64.64;100870.00;5039199;28;70657;-40
2023/11/01 05:56:41;;;;;;;;;;;;;;;31.74;64.62;100864.56;5031333;28;66590;-39
2023/11/01 05:59:11;;;;;;;;;;;;;;;31.76;64.97;100857.88;5034379;28;69643;-41
2023/11/01 06:01:41;;;;;;;;;;;;;;;31.78;64.73;100849.50;5039380;28;66070;-41
2023/11/01 06:04:10;;;;;;;;;;;;;;;31.79;64.62;100851.97;5041267;28;70360;-40
2023/11/01 06:06:40;;;;;;;;;;;;;;;31.82;64.69;100839.84;5040258;28;66765;-40
2023/11/01 06:09:18;;;;;;;;;;;;;;;31.84;64.43;100826.88;5041308;28;70574;-39
2023/11/01 06:11:48;;;;;;;;;;;;;;;31.87;64.59;100829.13;5041339;28;66700;-41
2023/11/01 06:14:20;;;;;;;;;;;;;;;31.88;64.47;100828.09;5054429;28;70413;-40
2023/11/01 06:16:50;;;;;;;;;;;;;;;31.91;64.21;100822.22;5040665;28;66490;-40
2023/11/01 06:19:20;;;;;;;;;;;;;;;31.94;64.40;100810.91;5028192;28;69815;-39
2023/11/01 06:21:49;;;;;;;;;;;;;;;31.97;64.23;100802.31;5040135;28;66575;-40
2023/11/01 06:24:19;;;;;;;;;;;;;;;31.98;64.15;100801.28;5041426;28;70541;-40
2023/11/01 06:26:49;;;;;;;;;;;;;;;32.00;64.23;100777.44;5037285;28;66838;-39
2023/11/01 06:29:19;;;;;;;;;;;;;;;32.05;64.05;100785.72;5040025;28;70001;-40
2023/11/01 06:31:49;;;;;;;;;;;;;;;32.07;64.17;100781.94;5040093;28;65595;-39
2023/11/01 06:34:20;;;;;;;;;;;;;;;32.11;64.03;100777.72;5040735;28;70458;-41
2023/11/01 06:36:49;;;;;;;;;;;;;;;32.13;63.92;100771.00;5038961;28;65885;-41
2023/11/01 06:39:19;;;;;;;;;;;;;;;32.17;64.02;100766.75;5039246;28;69796;-40
2023/11/01 06:41:49;;;;;;;;;;;;;;;32.18;63.90;100757.56;5038683;28;65750;-40
2023/11/01 06:44:19;;;;;;;;;;;;;;;32.21;63.80;100756.28;5030278;28;69518;-40
2023/11/01 06:46:49;;;;;;;;;;;;;;;32.24;63.77;100745.78;5041585;28;67021;-40
2023/11/01 06:49:20;;;;;;;;;;;;;;;32.26;63.66;100732.81;5040484;28;70264;-40
2023/11/01 06:51:51;;;;;;;;;;;;;;;32.30;63.45;100741.31;5038856;28;65867;-39
2023/11/01 06:54:21;;;;;;;;;;;;;;;32.33;63.48;100731.88;5041523;28;69907;-40
2023/11/01 06:56:51;;;;;;;;;;;;;;;32.37;63.69;100733.03;5040671;28;66014;-40
2023/11/01 06:59:21;;;;;;;;;;;;;;;32.39;63.51;100723.59;5043870;28;70005;-40
2023/11/01 07:01:51;;;;;;;;;;;;;;;32.43;63.35;100719.38;5042013;28;65505;-40
2023/11/01 07:04:21;;;;;;;;;;;;;;;32.45;63.18;100725.38;5040950;28;69626;-41
2023/11/01 07:06:51;;;;;;;;;;;;;;;32.47;63.20;100726.00;5042150;28;65920;-39
2023/11/01 07:09:22;;;;;;;;;;;;;;;32.52;63.14;100725.31;5042596;28;70132;-41
2023/11/01 07:11:52;;;;;;;;;;;;;;;32.56;62.98;100725.66;5041272;28;65437;-39
2023/11/01 07:14:22;;;;;;;;;;;;;;;32.58;62.93;100726.25;5041685;28;69598;-40
2023/11/01 07:16:52;;;;;;;;;;;;;;;32.62;63.17;100724.72;5041136;28;66113;-40
2023/11/01 07:19:23;;;;;;;;;;;;;;;32.65;62.84;100724.22;5033732;28;69770;-39
2023/11/01 07:21:53;;;;;;;;;;;;;;;32.68;62.60;100729.19;5038169;28;66088;-40
2023/11/01 07:24:23;;;;;;;;;;;;;;;32.70;62.63;100721.63;5034537;28;69796;-39
2023/11/01 07:26:53;;;;;;;;;;;;;;;32.73;62.40;100723.88;5037708;28;67103;-40
2023/11/01 07:29:23;;;;;;;;;;;;;;;32.78;62.61;100723.19;5039271;28;69631;-41
2023/11/01 07:31:53;;;;;;;;;;;;;;;32.79;62.19;100720.25;5034670;28;66076;-41
2023/11/01 07:34:24;;;;;;;;;;;;;;;32.82;62.60;100714.34;5032049;28;70576;-40
2023/11/01 07:36:54;;;;;;;;;;;;;;;32.85;62.03;100719.28;5032122;28;66213;-40
2023/11/01 07:39:24;;;;;;;;;;;;;;;32.88;62.07;100718.00;5039867;28;70307;-41
2023/11/01 07:41:54;;;;;;;;;;;;;;;32.90;62.08;100708.53;5038262;28;66910;-41
2023/11/01 07:44:24;;;;;;;;;;;;;;;32.94;62.09;100701.53;5040214;28;69925;-41
2023/11/01 07:46:54;;;;;;;;;;;;;;;32.96;61.89;100697.75;5037886;28;66985;-40
2023/11/01 07:49:24;;;;;;;;;;;;;;;32.97;62.02;100705.69;5034617;28;69417;-41
2023/11/01 07:51:56;;;;;;;;;;;;;;;33.00;61.90;100698.97;5037974;28;64662;-40
2023/11/01 07:54:26;;;;;;;;;;;;;;;33.02;61.99;100696.84;5038915;28;69792;-42
2023/11/01 07:56:56;;;;;;;;;;;;;;;33.05;61.80;100707.25;5052614;28;66077;-41
2023/11/01 07:59:29;;;;;;;;;;;;;;;33.08;61.82;100706.75;5034509;28;70319;-41
2023/11/01 08:01:59;;;;;;;;;;;;;;;33.11;61.85;100685.34;5038530;28;66154;-39
2023/11/01 08:04:30;;;;;;;;;;;;;;;33.16;61.81;100681.94;5039863;28;69933;-41
2023/11/01 08:07:00;;;;;;;;;;;;;;;33.20;61.96;100682.25;5037946;28;64988;-41
2023/11/01 08:09:29;;;;;;;;;;;;;;;33.21;61.67;100673.88;5037021;28;69874;-39
2023/11/01 08:11:59;;;;;;;;;;;;;;;33.23;61.66;100690.75;5040089;28;66349;-39
2023/11/01 08:14:32;;;;;;;;;;;;;;;33.24;61.55;100699.72;5034095;28;70555;-39
2023/11/01 08:17:02;;;;;;;;;;;;;;;33.27;61.90;100731.91;5040721;28;66839;-40
2023/11/01 08:19:32;;;;;;;;;;;;;;;33.27;61.71;100738.16;5035461;28;69721;-40
2023/11/01 08:22:03;;;;;;;;;;;;;;;33.28;62.03;100742.50;5036265;28;65866;-39
2023/11/01 08:24:33;;;;;;;;;;;;;;;33.29;62.08;100730.59;5043291;28;70150;-40
2023/11/01 08:27:03;;;;;;;;;;;;;;;33.30;62.08;100732.22;5036151;28;66653;-40
2023/11/01 08:29:35;;;;;;;;;;;;;;;33.29;61.63;100725.16;5034914;28;70834;-41
2023/11/01 08:32:05;;;;;;;;;;;;;;;33.31;61.91;100733.06;5035886;28;66841;-40
2023/11/01 08:34:35;;;;;;;;;;;;;;;33.31;61.69;100733.88;5045279;28;70364;-40
2023/11/01 08:37:05;;;;;;;;;;;;;;;33.31;61.85;100744.75;5042860;28;66608;-40
2023/11/01 08:39:35;;;;;;;;;;;;;;;33.16;61.71;100722.69;5041915;28;70557;-41
2023/11/01 08:42:05;;;;;;;;;;;;;;;33.29;61.75;100754.19;5041833;28;65993;-40
2023/11/01 08:44:35;;;;;;;;;;;;;;;33.28;61.45;100769.69;5041811;28;69726;-41
2023/11/01 08:47:05;;;;;;;;;;;;;;;33.30;61.75;100770.28;5035144;28;66435;-40
2023/11/01 08:49:38;;;;;;;;;;;;;;;33.28;61.64;100777.84;5036742;28;70596;-39
2023/11/01 08:52:11;;;;;;;;;;;;;;;33.29;61.88;100778.66;5041738;28;66140;-40
2023/11/01 08:54:42;;;;;;;;;;;;;;;33.27;61.41;100773.50;5037369;28;70382;-40
2023/11/01 08:57:12;;;;;;;;;;;;;;;33.24;61.62;100764.97;5041139;28;66730;-39
2023/11/01 08:59:42;;;;;;;;;;;;;;;33.24;61.84;100770.41;5042404;28;70232;-40
2023/11/01 09:02:12;;;;;;;;;;;;;;;33.22;61.53;100778.81;5032943;28;67387;-40
2023/11/01 09:04:44;;;;;;;;;;;;;;;33.21;61.58;100777.16;5044989;28;69969;-40
2023/11/01 09:07:13;;;;;;;;;;;;;;;33.20;61.76;100780.94;5042867;28;66011;-41
2023/11/01 09:09:44;;;;;;;;;;;;;;;33.20;61.88;100786.38;5028340;28;70159;-41
2023/11/01 09:12:13;;;;;;;;;;;;;;;33.19;61.48;100790.16;5049446;28;66304;-40
2023/11/01 09:14:44;;;;;;;;;;;;;;;33.17;61.94;100784.13;5030438;28;69858;-39
2023/11/01 09:17:14;;;;;;;;;;;;;;;33.19;61.82;100801.03;5041213;28;66763;-40
2023/11/01 09:19:44;;;;;;;;;;;;;;;33.18;61.89;100804.81;5041742;28;70932;-40
2023/11/01 09:22:15;;;;;;;;;;;;;;;32.72;64.64;100803.72;5041315;28;66515;-40
2023/11/01 09:24:45;;;;;;;;;;;;;;;32.60;66.00;100800.19;5039539;28;70049;-39
2023/11/01 09:27:15;;;;;;;;;;;;;;;32.45;66.72;100793.25;5040257;28;66229;-40
2023/11/01 09:29:45;;;;;;;;;;;;;;;32.40;67.12;100804.00;5040832;28;70602;-40
2023/11/01 09:32:15;;;;;;;;;;;;;;;32.34;67.37;100804.09;5005906;28;64591;-39
2023/11/01 09:34:46;;;;;;;;;;;;;;;32.57;66.99;100819.63;5040690;28;70758;-38
2023/11/01 09:37:18;;;;;;;;;;;;;;;32.74;66.30;100820.63;5040542;28;66915;-39
2023/11/01 09:39:48;;;;;;;;;;;;;;;32.83;66.18;100823.81;5051438;28;70844;-38
2023/11/01 09:42:20;;;;;;;;;;;;;;;32.89;65.77;100822.88;5040753;28;66903;-39
2023/11/01 09:44:55;;;;;;;;;;;;;;;32.93;65.68;100830.31;5039861;28;70291;-40
2023/11/01 09:47:28;;;;;;;;;;;;;;;32.97;65.51;100829.84;5032242;28;67110;-39
2023/11/01 09:50:00;;;;;;;;;;;;;;;32.97;65.54;100835.28;5027401;28;70619;-39
2023/11/01 09:52:30;;;;;;;;;;;;;;;33.00;65.52;100837.56;5038469;28;66528;-40
2023/11/01 09:55:04;;;;;;;;;;;;;;;32.98;65.47;100847.78;5040937;28;70660;-40
2023/11/01 09:57:35;;;;;;;;;;;;;;;32.99;65.58;100844.00;5041017;28;66773;-40
2023/11/01 10:00:07;;;;;;;;;;;;;;;32.99;65.58;100854.88;5038486;28;69620;-40
2023/11/01 10:02:37;;;;;;;;;;;;;;;32.97;65.58;100844.25;5036315;28;66479;-39
2023/11/01 10:05:07;;;;;;;;;;;;;;;32.67;66.73;100841.63;5038757;28;70329;-39
2023/11/01 10:07:37;;;;;;;;;;;;;;;32.49;68.05;100829.78;5038085;28;66274;-39
2023/11/01 10:10:14;;;;;;;;;;;;;;;32.35;68.78;100825.59;5036473;28;69973;-39
2023/11/01 10:12:45;;;;;;;;;;;;;;;32.26;69.42;100832.38;5036059;28;66027;-40
2023/11/01 10:15:19;;;;;;;;;;;;;;;32.21;69.73;100824.13;5037906;28;69478;-51
2023/11/01 10:17:51;;;;;;;;;;;;;;;32.17;70.19;100820.22;5049877;28;66267;-40
2023/11/01 10:20:22;;;;;;;;;;;;;;;32.16;70.42;100819.38;5037420;28;69974;-40
2023/11/01 10:22:52;;;;;;;;;;;;;;;32.13;70.64;100814.41;5036701;28;65622;-40
2023/11/01 10:25:22;;;;;;;;;;;;;;;32.09;70.83;100815.09;5038589;28;69004;-40
2023/11/01 10:27:55;;;;;;;;;;;;;;;32.11;71.01;100821.97;5037947;28;66711;-40
2023/11/01 10:30:25;;;;;;;;;;;;;;;32.12;71.10;100822.78;5037934;28;70892;-39
2023/11/01 10:32:56;;;;;;;;;;;;;;;32.11;71.34;100832.00;5053422;28;65215;-39
2023/11/01 10:35:27;;;;;;;;;;;;;;;32.10;71.58;100838.50;5037780;28;70679;-46
2023/11/01 10:38:00;;;;;;;;;;;;;;;32.08;71.68;100840.59;5037426;28;43072;-41
2023/11/01 10:40:31;;;;;;;;;;;;;;;32.07;71.60;100852.47;5036865;28;70905;-41
2023/11/01 10:43:04;;;;;;;;;;;;;;;32.05;71.58;100867.13;5039923;28;68428;-40
2023/11/01 10:45:34;;;;;;;;;;;;;;;32.03;71.97;100862.97;5038683;28;69330;-39
2023/11/01 10:48:04;;;;;;;;;;;;;;;32.04;71.87;100878.22;5036947;28;66977;-42
2023/11/01 10:50:36;;;;;;;;;;;;;;;32.03;71.51;100884.69;5038424;28;69156;-41
2023/11/01 10:53:07;;;;;;;;;;;;;;;32.01;71.39;100882.22;5039759;28;65802;-39
2023/11/01 10:55:37;;;;;;;;;;;;;;;32.00;71.21;100885.97;5033812;28;70621;-39
2023/11/01 10:58:13;;;;;;;;;;;;;;;32.01;71.12;100893.06;5037244;28;67056;-40
2023/11/01 11:00:48;;;;;;;;;;;;;;;31.98;71.18;100893.53;5036464;28;69957;-40
2023/11/01 11:03:27;;;;;;;;;;;;;;;32.01;71.23;100898.50;5039599;28;66962;-40
2023/11/01 11:05:59;;;;;;;;;;;;;;;32.01;71.40;100908.50;5038770;28;70156;-39
2023/11/01 11:08:30;;;;;;;;;;;;;;;32.00;71.35;100902.25;5032338;28;66262;-40
2023/11/01 11:11:18;;;;;;;;;;;;;;;31.97;71.43;100908.13;5049442;28;70001;-40
2023/11/01 11:13:51;;;;;;;;;;;;;;;31.93;71.47;100906.94;5036742;28;66143;-39
2023/11/01 11:16:24;;;;;;;;;;;;;;;31.92;71.45;100899.84;5034687;28;69714;-42
2023/11/01 11:18:56;;;;;;;;;;;;;;;31.91;71.46;100909.03;5039315;28;66007;-41
2023/11/01 11:21:45;;;;;;;;;;;;;;;31.89;71.75;100904.88;5048548;28;71056;-39
2023/11/01 11:24:35;;;;;;;;;;;;;;;31.85;71.85;100901.78;5033604;28;66516;-40
2023/11/01 11:27:49;;;;;;;;;;;;;;;31.82;72.18;100900.34;5037919;28;70633;-40
2023/11/01 11:30:42;;;;;;;;;;;;;;;31.93;71.67;100920.50;5011927;28;66279;-40
2023/11/01 11:33:13;;;;;;;;;;;;;;;32.10;71.25;100930.75;4963666;28;70353;-41
2023/11/01 11:35:44;;;;;;;;;;;;;;;32.19;70.64;100927.47;5032738;28;65539;-40
2023/11/01 11:38:32;;;;;;;;;;;;;;;32.25;70.60;100940.13;5039145;28;70315;-42
2023/11/01 11:41:22;;;;;;;;;;;;;;;32.29;70.28;100943.25;5038327;28;65804;-40
2023/11/01 11:44:02;;;;;;;;;;;;;;;32.32;70.12;100948.22;5039578;28;69727;-39
2023/11/01 11:46:38;;;;;;;;;;;;;;;32.34;70.11;100954.22;5041093;28;65353;-40
2023/11/01 11:49:31;;;;;;;;;;;;;;;32.36;69.94;100960.25;5041927;28;72109;-41
2023/11/01 11:52:03;;;;;;;;;;;;;;;32.37;69.75;100961.91;5035539;28;66245;-40
2023/11/01 11:54:34;;;;;;;;;;;;;;;32.38;69.86;100950.00;5036718;28;69925;-41
2023/11/01 11:57:08;;;;;;;;;;;;;;;32.40;69.54;100952.47;5043563;28;65606;-40
2023/11/01 11:59:41;;;;;;;;;;;;;;;32.39;69.58;100943.50;5032315;28;70220;-40
2023/11/01 12:02:13;;;;;;;;;;;;;;;32.39;69.76;100932.66;5042477;28;65607;-40
2023/11/01 12:04:44;;;;;;;;;;;;;;;32.38;69.60;100925.56;5046918;28;69603;-41
2023/11/01 12:07:22;;;;;;;;;;;;;;;32.38;69.54;100943.75;5038406;28;66107;-41
2023/11/01 12:09:53;;;;;;;;;;;;;;;32.38;69.31;100947.28;5034902;28;70796;-40
2023/11/01 12:12:26;;;;;;;;;;;;;;;32.37;69.47;100951.03;5034514;28;66573;-40
2023/11/01 12:15:00;;;;;;;;;;;;;;;32.36;69.76;100954.81;5030916;28;70141;-40
2023/11/01 12:17:34;;;;;;;;;;;;;;;32.35;69.46;100953.19;5041044;28;66476;-41
2023/11/01 12:20:05;;;;;;;;;;;;;;;32.36;69.55;100960.25;5035327;28;70622;-40
2023/11/01 12:22:44;;;;;;;;;;;;;;;32.34;69.62;100946.06;5040444;28;66253;-41
2023/11/01 12:25:22;;;;;;;;;;;;;;;32.34;69.62;100950.69;5035226;28;70308;-40
2023/11/01 12:27:52;;;;;;;;;;;;;;;32.32;69.64;100936.50;5049045;28;66183;-39
2023/11/01 12:30:22;;;;;;;;;;;;;;;32.31;69.77;100941.09;5037344;28;69708;-40
2023/11/01 12:32:56;;;;;;;;;;;;;;;32.30;69.75;100939.47;5029640;28;66865;-41
2023/11/01 12:35:26;;;;;;;;;;;;;;;32.29;69.80;100940.53;5042618;28;69944;-40
2023/11/01 12:37:56;;;;;;;;;;;;;;;32.29;69.78;100935.09;5035515;28;66096;-42
2023/11/01 12:40:26;;;;;;;;;;;;;;;32.28;69.32;100936.13;5039379;28;70425;-41
2023/11/01 12:43:11;;;;;;;;;;;;;;;32.05;70.82;100937.66;5040510;28;66562;-41
2023/11/01 12:45:41;;;;;;;;;;;;;;;31.89;71.78;100943.66;5041075;28;70306;-38
2023/11/01 12:48:12;;;;;;;;;;;;;;;31.79;72.38;100948.81;5037176;28;66498;-41
2023/11/01 12:50:42;;;;;;;;;;;;;;;31.75;72.85;100963.84;5049173;28;70087;-44
2023/11/01 12:53:13;;;;;;;;;;;;;;;31.69;72.86;100964.75;5027970;28;65482;-42
2023/11/01 12:55:43;;;;;;;;;;;;;;;31.66;72.69;100978.78;5042595;28;69783;-41